デンバー の空港の天気 - METARとTAF

デンバー国際空港 ( KDEN / DEN ) - アメリカ コロラド州デンバー
飛行場実況気象(Metar)
観測時間11/30 09:53 MST (11/30 16:53 UTC)
風向・風速静穏 0m/s
視程10km以上
天気現象
少しの雲 雲底高度 240m
少しの雲 雲底高度 2740m
気温-6.7℃
湿度71%
気圧1025.7hPa
METARKDEN 301653Z 00000KT 10SM FEW008 FEW090 M07/M11 A3012 RMK AO2 SLP257 T10671111
過去の天気等 Google飛行場航空写真 Wunderground天気予報

過去48時間のMETAR

飛行場予報(TAF)
発表時間: 11/30 07:51 MST (11/30 14:51 UTC)
予報対象時間: 30日8時 MST ~ 1日11時 MST
風向・風速不定 3m/s
視程10km以上
全天の4割程度の雲 雲底高度 6100m
30日13時 MST から
風向・風速北北東 3m/s
視程10km以上
少しの雲 雲底高度 7620m
30日19時 MST から
風向・風速南南西 4m/s
視程10km以上
少しの雲 雲底高度 7620m
KDEN 301451Z 3015/0118 VRB06KT P6SM SCT200
FM302000 02006KT P6SM FEW250
FM010200 21008KT P6SM FEW250